Time;durP1;ratioP1;P1;durP2;ratioP2;P2;SDS_P1;SDS_P2;PMS_P1;PMS_P2;Temp;Humidity;BMP_temperature;BMP_pressure;BME280_temperature;BME280_humidity;BME280_pressure;Samples;Min_cycle;Max_cycle;Signal;HPM_P1;HPM_P2
2023/07/25 00:01:56;;;;;;;4.95;2.45;;;;;;;19.47;100.00;96831.59;1223294;75;2935192;-71
2023/07/25 00:04:29;;;;;;;4.85;2.70;;;;;;;19.64;100.00;96846.94;1221763;75;2938026;-69
2023/07/25 00:07:01;;;;;;;6.30;2.55;;;;;;;19.36;100.00;96873.59;1223527;75;2926900;-66
2023/07/25 00:09:34;;;;;;;5.35;2.70;;;;;;;19.35;100.00;96863.81;1223257;75;2920373;-68
2023/07/25 00:12:10;;;;;;;5.80;2.30;;;;;;;19.62;100.00;96861.38;1223076;75;2925155;-67
2023/07/25 00:14:42;;;;;;;4.15;2.50;;;;;;;19.50;100.00;96868.59;1222861;75;2919963;-70
2023/07/25 00:17:15;;;;;;;4.20;2.10;;;;;;;19.62;100.00;96830.84;1222941;75;2928491;-70
2023/07/25 00:19:48;;;;;;;3.80;2.70;;;;;;;19.52;100.00;96802.16;1222718;75;2929552;-69
2023/07/25 00:22:20;;;;;;;4.60;2.30;;;;;;;19.35;100.00;96789.59;1223484;75;2926410;-70
2023/07/25 00:24:53;;;;;;;5.60;2.90;;;;;;;19.09;100.00;96701.97;1222549;75;2926483;-68
2023/07/25 00:27:28;;;;;;;4.05;2.25;;;;;;;19.46;100.00;96727.44;1222953;75;2928775;-71
2023/07/25 00:30:02;;;;;;;6.65;2.05;;;;;;;19.70;100.00;96745.53;1223024;75;2920929;-66
2023/07/25 00:32:36;;;;;;;2.60;1.45;;;;;;;19.85;100.00;96730.84;1223638;75;2920411;-69
2023/07/25 00:35:10;;;;;;;2.70;1.30;;;;;;;19.84;100.00;96734.16;1223045;75;2924909;-69
2023/07/25 00:37:42;;;;;;;2.10;1.70;;;;;;;19.91;100.00;96727.84;1222817;75;2921058;-68
2023/07/25 00:40:16;;;;;;;1.80;1.25;;;;;;;19.92;100.00;96716.19;1222840;75;2923646;-65
2023/07/25 00:42:57;;;;;;;2.90;1.80;;;;;;;19.66;100.00;96711.81;1222385;75;2924022;-71
2023/07/25 00:45:30;;;;;;;2.75;1.80;;;;;;;19.81;100.00;96713.09;1223548;75;2921185;-69
2023/07/25 00:48:02;;;;;;;5.35;1.90;;;;;;;19.62;100.00;96708.66;1222529;75;2924616;-71
2023/07/25 00:50:35;;;;;;;2.65;2.00;;;;;;;19.62;100.00;96672.59;1222930;75;2925444;-70
2023/07/25 00:53:09;;;;;;;3.00;1.50;;;;;;;19.78;100.00;96645.53;1223082;75;2922450;-71
2023/07/25 00:55:42;;;;;;;3.40;1.75;;;;;;;19.67;100.00;96580.00;1222244;75;2931468;-70
2023/07/25 00:58:18;;;;;;;3.65;1.90;;;;;;;19.59;100.00;96532.13;1222082;75;2933093;-72
2023/07/25 01:00:51;;;;;;;3.20;1.70;;;;;;;19.57;100.00;96520.84;1223510;75;2924930;-70
2023/07/25 01:03:24;;;;;;;2.40;1.45;;;;;;;19.63;100.00;96551.19;1222788;75;2929724;-68
2023/07/25 01:05:58;;;;;;;3.30;1.50;;;;;;;19.56;100.00;96538.81;1222159;75;2931005;-72
2023/07/25 01:08:30;;;;;;;3.25;2.00;;;;;;;19.59;100.00;96562.66;1218358;75;3135392;-68
2023/07/25 01:11:03;;;;;;;2.30;1.45;;;;;;;19.75;100.00;96577.22;1221961;75;2921728;-69
2023/07/25 01:13:38;;;;;;;2.40;1.50;;;;;;;19.55;100.00;96595.63;1223025;75;2923450;-69
2023/07/25 01:16:13;;;;;;;2.65;1.70;;;;;;;19.65;100.00;96604.06;1223013;75;2924583;-69
2023/07/25 01:18:48;;;;;;;4.80;2.20;;;;;;;19.14;100.00;96619.84;1223319;75;2944427;-68
2023/07/25 01:21:21;;;;;;;3.20;1.70;;;;;;;19.53;100.00;96610.06;1223665;75;2932823;-69
2023/07/25 01:23:54;;;;;;;3.00;1.90;;;;;;;19.18;100.00;96625.00;1223509;75;2923852;-69
2023/07/25 01:26:30;;;;;;;3.95;2.35;;;;;;;18.71;100.00;96649.28;1223426;75;2927520;-69
2023/07/25 01:29:02;;;;;;;4.25;2.15;;;;;;;18.75;100.00;96677.38;1222883;75;2926706;-66
2023/07/25 01:31:35;;;;;;;5.85;2.80;;;;;;;18.73;100.00;96696.59;1222748;75;2933679;-70
2023/07/25 01:34:07;;;;;;;3.10;2.30;;;;;;;18.58;100.00;96708.44;1223406;75;2925626;-69
2023/07/25 01:36:40;;;;;;;4.45;2.50;;;;;;;18.55;100.00;96700.50;1223752;75;2923246;-71
2023/07/25 01:39:13;;;;;;;4.25;2.55;;;;;;;18.66;100.00;96692.53;1222818;75;2925183;-68
2023/07/25 01:41:48;;;;;;;3.40;1.95;;;;;;;18.97;100.00;96700.88;1223066;75;2931526;-71
2023/07/25 01:44:21;;;;;;;4.50;1.90;;;;;;;19.10;100.00;96695.13;1223909;75;2925356;-70
2023/07/25 01:46:53;;;;;;;1.90;1.50;;;;;;;19.33;100.00;96699.88;1222714;75;2926991;-67
2023/07/25 01:49:26;;;;;;;1.80;1.20;;;;;;;19.25;100.00;96693.63;1223444;75;2923416;-66
2023/07/25 01:51:58;;;;;;;1.80;1.40;;;;;;;19.24;100.00;96676.25;1222986;75;2924320;-68
2023/07/25 01:54:31;;;;;;;2.05;1.40;;;;;;;19.06;100.00;96671.84;1223617;75;2928914;-67
2023/07/25 01:57:07;;;;;;;2.45;1.60;;;;;;;19.11;100.00;96659.78;1223117;75;2927425;-67
2023/07/25 01:59:39;;;;;;;2.30;1.45;;;;;;;19.13;100.00;96663.50;1222903;75;2921338;-67
2023/07/25 02:02:12;;;;;;;1.60;1.20;;;;;;;19.21;100.00;96657.19;1222701;75;2935989;-72
2023/07/25 02:04:45;;;;;;;1.70;1.40;;;;;;;19.11;100.00;96663.31;1223181;75;2933530;-69
2023/07/25 02:07:17;;;;;;;1.60;1.20;;;;;;;19.13;100.00;96657.22;1223145;75;2936652;-68
2023/07/25 02:09:50;;;;;;;2.20;1.25;;;;;;;19.17;100.00;96652.03;1224673;75;2923921;-66
2023/07/25 02:12:25;;;;;;;1.10;0.90;;;;;;;19.01;100.00;96647.81;1223743;75;2922338;-66
2023/07/25 02:14:58;;;;;;;2.65;1.85;;;;;;;18.66;100.00;96647.44;1222701;75;2925212;-69
2023/07/25 02:17:31;;;;;;;3.00;1.85;;;;;;;18.69;100.00;96649.13;1224014;75;2925711;-73
2023/07/25 02:20:03;;;;;;;2.35;1.65;;;;;;;18.78;100.00;96640.25;1223453;75;2926261;-70
2023/07/25 02:22:36;;;;;;;3.15;2.20;;;;;;;18.68;100.00;96639.31;1223851;75;2925333;-68
2023/07/25 02:25:10;;;;;;;2.75;1.85;;;;;;;18.64;100.00;96634.16;1222614;75;2921461;-70
2023/07/25 02:27:45;;;;;;;1.85;1.40;;;;;;;18.88;100.00;96629.31;1223708;75;2922170;-69
2023/07/25 02:30:18;;;;;;;2.10;1.15;;;;;;;18.88;100.00;96621.00;1223478;75;2917411;-68
2023/07/25 02:32:50;;;;;;;2.65;1.65;;;;;;;18.49;100.00;96631.38;1223808;75;2920936;-70
2023/07/25 02:35:23;;;;;;;2.50;1.55;;;;;;;18.58;100.00;96632.84;1223739;75;2927744;-70
2023/07/25 02:37:56;;;;;;;5.55;2.35;;;;;;;18.50;100.00;96636.38;1223423;75;2923624;-69
2023/07/25 02:40:28;;;;;;;2.10;1.45;;;;;;;18.77;100.00;96635.28;1223313;75;2922582;-69
2023/07/25 02:43:05;;;;;;;4.60;1.60;;;;;;;18.70;100.00;96626.38;1223833;75;2923957;-70
2023/07/25 02:45:38;;;;;;;1.65;1.20;;;;;;;18.50;100.00;96627.31;1223751;75;2920904;-68
2023/07/25 02:48:10;;;;;;;3.15;1.50;;;;;;;18.52;100.00;96624.75;1223732;75;2930576;-67
2023/07/25 02:50:43;;;;;;;2.55;1.50;;;;;;;18.74;100.00;96615.66;1222726;75;2932799;-67
2023/07/25 02:53:15;;;;;;;3.55;1.30;;;;;;;18.67;100.00;96604.56;1223039;75;2947659;-72
2023/07/25 02:55:48;;;;;;;1.20;1.00;;;;;;;18.69;100.00;96607.53;1221525;75;2934211;-68
2023/07/25 02:58:23;;;;;;;1.70;1.00;;;;;;;18.75;100.00;96605.28;1223347;75;2919770;-69
2023/07/25 03:00:56;;;;;;;2.50;1.20;;;;;;;18.65;100.00;96607.91;1223193;75;2938190;-69
2023/07/25 03:03:28;;;;;;;2.05;1.10;;;;;;;18.65;100.00;96607.91;1222647;75;2925520;-68
2023/07/25 03:06:01;;;;;;;1.40;1.00;;;;;;;18.51;100.00;96603.84;1223948;75;2921666;-67
2023/07/25 03:08:34;;;;;;;5.55;2.00;;;;;;;18.32;100.00;96595.91;1222387;75;2931660;-70
2023/07/25 03:11:06;;;;;;;3.00;1.75;;;;;;;18.58;100.00;96589.25;1222778;75;2932127;-70
2023/07/25 03:13:42;;;;;;;1.25;0.95;;;;;;;18.61;100.00;96590.16;1223194;75;2931359;-69
2023/07/25 03:16:14;;;;;;;2.35;1.60;;;;;;;18.50;100.00;96588.53;1222142;75;2923103;-70
2023/07/25 03:18:47;;;;;;;2.65;1.40;;;;;;;18.60;100.00;96592.19;1223292;75;2927256;-71
2023/07/25 03:21:19;;;;;;;5.40;1.25;;;;;;;18.58;100.00;96572.59;1222432;75;2939201;-71
2023/07/25 03:23:52;;;;;;;1.60;1.20;;;;;;;18.54;100.00;96561.16;1223601;75;2925271;-66
2023/07/25 03:26:25;;;;;;;2.20;1.30;;;;;;;18.50;100.00;96558.03;1222839;75;2930385;-70
2023/07/25 03:29:00;;;;;;;1.55;1.05;;;;;;;18.49;100.00;96546.19;1222571;75;2929695;-70
2023/07/25 03:31:32;;;;;;;2.00;1.25;;;;;;;18.49;100.00;96545.47;1223292;75;2929660;-68
2023/07/25 03:34:05;;;;;;;2.45;1.30;;;;;;;18.61;100.00;96557.63;1222334;75;2934312;-67
2023/07/25 03:36:38;;;;;;;2.35;1.20;;;;;;;18.55;100.00;96553.59;1216394;75;3057233;-67
2023/07/25 03:39:10;;;;;;;2.00;1.55;;;;;;;18.17;100.00;96560.63;1220725;75;3025873;-71
2023/07/25 03:41:43;;;;;;;3.30;1.30;;;;;;;18.39;100.00;96556.38;1223675;75;2922821;-71
2023/07/25 03:44:20;;;;;;;2.20;1.00;;;;;;;18.63;100.00;96559.84;1223037;75;2924680;-67
2023/07/25 03:46:52;;;;;;;1.50;1.10;;;;;;;18.60;100.00;96555.44;1223866;75;2923689;-70
2023/07/25 03:49:25;;;;;;;1.25;1.10;;;;;;;18.64;100.00;96553.75;1222591;75;2934224;-67
2023/07/25 03:51:57;;;;;;;1.95;1.55;;;;;;;18.29;100.00;96549.91;1222854;75;2936252;-69
2023/07/25 03:54:30;;;;;;;3.20;1.60;;;;;;;18.40;100.00;96557.09;1223649;75;2922409;-69
2023/07/25 03:57:03;;;;;;;2.25;1.40;;;;;;;18.49;100.00;96564.84;1223184;75;2930000;-71
2023/07/25 03:59:38;;;;;;;2.95;1.10;;;;;;;18.76;100.00;96568.00;1222476;75;2932704;-71
2023/07/25 04:02:11;;;;;;;1.80;1.20;;;;;;;18.81;100.00;96567.06;1223216;75;2929980;-68
2023/07/25 04:04:43;;;;;;;2.25;1.40;;;;;;;18.83;100.00;96572.78;1223724;75;2925513;-68
2023/07/25 04:07:16;;;;;;;2.00;1.20;;;;;;;18.89;100.00;96578.84;1223068;75;2923423;-69
2023/07/25 04:09:48;;;;;;;1.20;1.00;;;;;;;18.96;100.00;96596.78;1223161;75;2927428;-68
2023/07/25 04:12:21;;;;;;;1.10;0.90;;;;;;;18.94;100.00;96613.97;1223415;75;2931035;-69
2023/07/25 04:14:56;;;;;;;2.50;1.25;;;;;;;18.80;100.00;96614.75;1220362;75;3022310;-68
2023/07/25 04:17:29;;;;;;;3.70;1.30;;;;;;;18.78;100.00;96614.56;1222824;75;2931177;-68
2023/07/25 04:20:02;;;;;;;2.20;1.55;;;;;;;18.81;100.00;96638.38;1223242;75;2922895;-69
2023/07/25 04:22:35;;;;;;;3.30;2.10;;;;;;;18.65;100.00;96638.38;1222411;75;2946382;-70
2023/07/25 04:25:09;;;;;;;3.85;2.10;;;;;;;18.56;100.00;96638.94;1222561;75;2929981;-69
2023/07/25 04:27:42;;;;;;;4.45;2.15;;;;;;;18.77;100.00;96635.28;1223379;75;2924882;-68
2023/07/25 04:30:17;;;;;;;2.45;1.55;;;;;;;18.94;100.00;96627.09;1223595;75;2921848;-71
2023/07/25 04:32:50;;;;;;;3.05;1.90;;;;;;;18.75;100.00;96624.69;1223625;75;2922913;-72
2023/07/25 04:35:22;;;;;;;5.75;4.50;;;;;;;18.99;100.00;96622.66;1222556;75;2923021;-67
2023/07/25 04:37:55;;;;;;;7.00;3.55;;;;;;;18.74;100.00;96626.00;1222668;75;2927111;-66
2023/07/25 04:40:28;;;;;;;12.75;10.50;;;;;;;18.62;100.00;96636.00;1222712;75;2923500;-72
2023/07/25 04:43:01;;;;;;;9.40;7.00;;;;;;;18.45;100.00;96623.44;1223524;75;2961004;-70
2023/07/25 04:45:36;;;;;;;5.30;3.95;;;;;;;18.56;100.00;96616.03;1222950;75;2921215;-67
2023/07/25 04:48:09;;;;;;;7.25;2.90;;;;;;;18.55;100.00;96628.44;1223035;75;2929385;-71
2023/07/25 04:50:42;;;;;;;3.65;2.75;;;;;;;18.33;100.00;96633.41;1223629;75;2925827;-68
2023/07/25 04:53:15;;;;;;;7.25;5.80;;;;;;;18.52;100.00;96619.19;1223323;75;2930342;-67
2023/07/25 04:55:47;;;;;;;8.70;5.00;;;;;;;18.59;100.00;96618.44;1221938;75;2924279;-69
2023/07/25 04:58:20;;;;;;;3.60;2.90;;;;;;;18.51;100.00;96604.56;1220032;75;3080386;-68
2023/07/25 05:00:55;;;;;;;5.70;3.40;;;;;;;18.64;100.00;96598.13;1222946;75;2925584;-68
2023/07/25 05:03:28;;;;;;;4.15;2.50;;;;;;;18.86;100.00;96587.56;1223301;75;2928723;-69
2023/07/25 05:06:01;;;;;;;4.60;2.40;;;;;;;19.08;100.00;96580.47;1223074;75;2927938;-70
2023/07/25 05:08:35;;;;;;;3.10;1.80;;;;;;;19.11;100.00;96574.53;1222018;75;2927195;-71
2023/07/25 05:11:08;;;;;;;2.65;1.80;;;;;;;19.33;100.00;96572.22;1223540;75;2878897;-68
2023/07/25 05:13:40;;;;;;;2.05;1.35;;;;;;;19.30;100.00;96562.25;1223403;75;2934573;-68
2023/07/25 05:16:16;;;;;;;2.35;1.65;;;;;;;19.41;100.00;96556.28;1222921;75;2930439;-71
2023/07/25 05:18:48;;;;;;;3.10;1.90;;;;;;;19.20;100.00;96550.28;1222832;75;2925469;-70
2023/07/25 05:21:21;;;;;;;3.40;1.95;;;;;;;19.15;100.00;96549.94;1222673;75;2951191;-70
2023/07/25 05:23:54;;;;;;;3.40;1.65;;;;;;;19.47;100.00;96551.25;1223395;75;2920975;-70
2023/07/25 05:26:26;;;;;;;4.30;1.15;;;;;;;19.50;100.00;96544.56;1223240;75;2923853;-69
2023/07/25 05:28:59;;;;;;;2.45;1.20;;;;;;;19.55;100.00;96534.53;1222376;75;2925134;-65
2023/07/25 05:31:34;;;;;;;2.50;1.80;;;;;;;19.16;100.00;96495.16;1222916;75;2931996;-69
2023/07/25 05:34:06;;;;;;;3.60;1.70;;;;;;;19.29;100.00;96458.84;1222115;75;2925083;-69
2023/07/25 05:36:39;;;;;;;3.65;2.05;;;;;;;19.40;100.00;96488.19;1222662;75;2924587;-68
2023/07/25 05:39:12;;;;;;;2.15;1.50;;;;;;;19.49;100.00;96518.13;1222440;75;2930202;-67
2023/07/25 05:41:45;;;;;;;2.00;1.40;;;;;;;19.39;100.00;96533.19;1223644;75;2930736;-71
2023/07/25 05:44:17;;;;;;;3.30;1.60;;;;;;;19.18;100.00;96544.56;1222614;83;2923991;-71
2023/07/25 05:46:53;;;;;;;3.80;2.20;;;;;;;18.88;100.00;96571.09;1223003;75;2925787;-67
2023/07/25 05:49:25;;;;;;;7.90;2.50;;;;;;;18.81;100.00;96533.03;1223349;75;2929100;-68
2023/07/25 05:51:58;;;;;;;4.50;2.75;;;;;;;18.77;100.00;96460.59;1222183;75;2920317;-66
2023/07/25 05:54:32;;;;;;;3.85;2.45;;;;;;;18.63;100.00;96430.31;1222669;75;2928584;-69
2023/07/25 05:57:05;;;;;;;5.50;2.80;;;;;;;18.50;100.00;96444.41;1223278;75;2925379;-71
2023/07/25 05:59:37;;;;;;;3.40;2.40;;;;;;;18.62;100.00;96453.06;1222769;75;2924016;-69
2023/07/25 06:02:13;;;;;;;4.15;2.85;;;;;;;18.39;100.00;96514.06;1222854;75;2932690;-71
2023/07/25 06:04:46;;;;;;;5.05;2.95;;;;;;;18.51;100.00;96576.88;1223325;75;2921375;-69
2023/07/25 06:07:19;;;;;;;5.55;2.95;;;;;;;18.57;100.00;96618.25;1222401;75;2923941;-70
2023/07/25 06:09:51;;;;;;;3.70;2.60;;;;;;;18.80;100.00;96621.03;1222964;75;2917055;-68
2023/07/25 06:12:24;;;;;;;4.20;2.70;;;;;;;18.63;100.00;96596.63;1223261;75;2921443;-69
2023/07/25 06:14:56;;;;;;;5.75;2.65;;;;;;;18.58;100.00;96566.34;1223666;75;2933910;-68
2023/07/25 06:17:32;;;;;;;4.40;2.10;;;;;;;18.86;100.00;96584.78;1220155;75;2924987;-69
2023/07/25 06:20:04;;;;;;;3.25;2.25;;;;;;;18.82;100.00;96601.78;1221376;75;2949429;-71
2023/07/25 06:22:37;;;;;;;3.35;2.30;;;;;;;18.61;100.00;96626.94;1222273;75;2923190;-69
2023/07/25 06:25:12;;;;;;;5.10;2.40;;;;;;;18.79;100.00;96608.47;1222995;75;2922761;-66
2023/07/25 06:27:45;;;;;;;2.90;1.90;;;;;;;18.97;100.00;96623.22;1223715;75;2929236;-70
2023/07/25 06:30:18;;;;;;;2.65;1.75;;;;;;;19.22;100.00;96625.34;1223118;75;2921602;-69
2023/07/25 06:32:53;;;;;;;7.05;3.30;;;;;;;18.54;100.00;96552.84;1222535;75;2919727;-69
2023/07/25 06:35:26;;;;;;;4.45;3.25;;;;;;;18.57;100.00;96518.47;1223869;75;2926996;-70
2023/07/25 06:37:59;;;;;;;3.85;2.30;;;;;;;18.92;100.00;96513.22;1221901;75;2927791;-70
2023/07/25 06:40:31;;;;;;;7.75;3.70;;;;;;;18.22;100.00;96647.63;1221501;75;2917824;-68
2023/07/25 06:43:04;;;;;;;7.30;3.30;;;;;;;18.48;100.00;96713.78;1221831;75;2925404;-69
2023/07/25 06:45:37;;;;;;;7.80;3.85;;;;;;;18.42;100.00;96781.75;1223011;75;2929117;-67
2023/07/25 06:48:12;;;;;;;7.60;3.60;;;;;;;18.09;100.00;96759.31;1221393;75;2938757;-67
2023/07/25 06:50:45;;;;;;;7.10;3.85;;;;;;;17.88;100.00;96679.13;1222391;75;2924747;-70
2023/07/25 06:53:18;;;;;;;6.70;3.15;;;;;;;18.05;100.00;96723.66;1222133;75;2945786;-69
2023/07/25 06:55:51;;;;;;;7.50;3.35;;;;;;;18.13;100.00;96747.88;1220972;75;2945047;-69
2023/07/25 06:58:24;;;;;;;4.95;3.35;;;;;;;18.17;100.00;96726.84;1222851;75;2959497;-67
2023/07/25 07:00:58;;;;;;;11.60;5.35;;;;;;;17.92;100.00;96662.91;1222971;75;2932932;-68
2023/07/25 07:03:33;;;;;;;7.00;3.60;;;;;;;17.84;100.00;96612.28;1222868;67;2919042;-72
2023/07/25 07:06:06;;;;;;;7.60;4.00;;;;;;;17.87;100.00;96636.09;1223502;75;2920610;-68
2023/07/25 07:08:39;;;;;;;4.50;3.15;;;;;;;18.14;100.00;96664.25;1221698;75;2963038;-67
2023/07/25 07:11:11;;;;;;;5.00;2.90;;;;;;;18.24;100.00;96701.19;1223615;75;2930448;-69
2023/07/25 07:13:44;;;;;;;4.10;2.50;;;;;;;18.23;100.00;96723.88;1222502;75;2932265;-71
2023/07/25 07:16:17;;;;;;;4.60;3.15;;;;;;;18.16;100.00;96744.75;1223121;75;2924286;-70
2023/07/25 07:18:53;;;;;;;3.80;2.25;;;;;;;18.46;100.00;96738.53;1222691;75;2921253;-71
2023/07/25 07:21:26;;;;;;;2.45;1.90;;;;;;;18.45;100.00;96753.69;1222828;75;2928759;-69
2023/07/25 07:23:59;;;;;;;7.45;2.65;;;;;;;18.19;100.00;96763.03;1222254;75;2959827;-67
2023/07/25 07:26:31;;;;;;;6.60;3.20;;;;;;;17.90;100.00;96790.06;1222262;75;2915941;-67
2023/07/25 07:29:04;;;;;;;5.95;3.55;;;;;;;17.75;100.00;96785.19;1223349;75;2928610;-67
2023/07/25 07:31:37;;;;;;;8.80;4.50;;;;;;;17.83;100.00;96796.31;1223831;75;2924093;-68
2023/07/25 07:34:18;;;;;;;5.20;3.45;;;;;;;17.99;100.00;96797.88;1222976;75;2925179;-70
2023/07/25 07:36:51;;;;;;;3.35;2.70;;;;;;;17.98;100.00;96806.72;1223518;75;2928210;-68
2023/07/25 07:39:23;;;;;;;6.10;3.80;;;;;;;17.83;100.00;96777.69;1224302;75;2925672;-69
2023/07/25 07:41:56;;;;;;;5.55;3.10;;;;;;;17.95;100.00;96697.78;1223773;75;2931478;-70
2023/07/25 07:44:28;;;;;;;6.25;2.90;;;;;;;18.08;100.00;96514.09;1222582;75;2938044;-67
2023/07/25 07:47:01;;;;;;;3.70;2.75;;;;;;;17.95;100.00;96454.13;1222882;75;2916904;-68
2023/07/25 07:49:36;;;;;;;2.50;2.20;;;;;;;17.90;100.00;96362.94;1222848;75;2926789;-67
2023/07/25 07:52:09;;;;;;;3.30;2.10;;;;;;;17.74;100.00;96382.31;1222680;75;2925457;-68
2023/07/25 07:54:42;;;;;;;2.45;1.90;;;;;;;17.90;100.00;96482.00;1223751;75;2921792;-68
2023/07/25 07:57:14;;;;;;;4.15;2.10;;;;;;;17.94;100.00;96476.81;1222812;75;2932715;-69
2023/07/25 07:59:47;;;;;;;3.30;1.85;;;;;;;17.97;100.00;96448.78;1221780;75;2920527;-68
2023/07/25 08:02:20;;;;;;;4.25;2.30;;;;;;;18.06;100.00;96486.22;1222247;75;2928655;-68
2023/07/25 08:04:55;;;;;;;2.85;2.15;;;;;;;18.08;100.00;96544.56;1221955;75;2926243;-68
2023/07/25 08:07:28;;;;;;;4.35;2.50;;;;;;;17.83;100.00;96610.81;1221705;75;2922975;-67
2023/07/25 08:10:01;;;;;;;5.95;3.60;;;;;;;17.72;100.00;96649.88;1223015;75;2927861;-72
2023/07/25 08:12:33;;;;;;;4.25;2.90;;;;;;;17.97;100.00;96667.53;1221480;75;2929651;-68
2023/07/25 08:15:07;;;;;;;4.55;3.00;;;;;;;18.16;100.00;96661.66;1223214;75;2935317;-71
2023/07/25 08:17:40;;;;;;;3.80;2.40;;;;;;;18.29;100.00;96636.53;1222710;75;2925241;-71
2023/07/25 08:20:16;;;;;;;4.00;2.60;;;;;;;18.53;100.00;96604.75;1211434;75;3708739;-68
2023/07/25 08:22:48;;;;;;;4.65;2.90;;;;;;;18.67;100.00;96593.50;1222929;75;2926400;-67
2023/07/25 08:25:21;;;;;;;4.30;2.20;;;;;;;19.04;100.00;96594.72;1222713;75;2946384;-68
2023/07/25 08:27:53;;;;;;;3.85;2.60;;;;;;;19.06;100.00;96614.31;1221544;75;2926721;-68
2023/07/25 08:30:26;;;;;;;2.85;2.10;;;;;;;19.25;100.00;96605.56;1222985;75;2922566;-69
2023/07/25 08:32:59;;;;;;;2.85;2.15;;;;;;;19.53;100.00;96606.53;1222169;75;2929421;-73
2023/07/25 08:35:34;;;;;;;3.05;2.25;;;;;;;19.58;100.00;96605.63;1222242;75;2929551;-68
2023/07/25 08:38:06;;;;;;;2.85;2.20;;;;;;;19.76;100.00;96614.78;1222292;75;2925119;-69
2023/07/25 08:40:39;;;;;;;2.85;2.15;;;;;;;19.98;100.00;96615.97;1219989;75;2980040;-73
2023/07/25 08:43:13;;;;;;;2.80;2.20;;;;;;;20.06;100.00;96613.88;1222742;75;2926942;-73
2023/07/25 08:45:49;;;;;;;2.55;2.00;;;;;;;20.39;100.00;96614.53;1223365;75;2925093;-71
2023/07/25 08:48:23;;;;;;;1.95;1.70;;;;;;;20.58;100.00;96632.78;1222661;75;2922553;-67
2023/07/25 08:51:02;;;;;;;3.15;2.30;;;;;;;20.61;100.00;96626.06;1218130;75;3171896;-69
2023/07/25 08:53:36;;;;;;;2.60;2.10;;;;;;;20.43;100.00;96633.63;1222946;75;2928202;-70
2023/07/25 08:56:09;;;;;;;2.80;2.50;;;;;;;20.58;100.00;96641.84;1219617;75;3023440;-69
2023/07/25 08:58:44;;;;;;;5.80;3.50;;;;;;;19.95;100.00;96636.53;1220601;75;2922115;-67
2023/07/25 09:01:17;;;;;;;3.50;2.85;;;;;;;20.42;100.00;96641.22;1222093;75;2924670;-71
2023/07/25 09:03:57;;;;;;;5.15;3.60;;;;;;;20.26;100.00;96636.34;1223055;75;2920293;-70
2023/07/25 09:06:33;;;;;;;4.90;3.60;;;;;;;19.90;100.00;96634.72;1222257;75;2926031;-71
2023/07/25 09:09:06;;;;;;;5.60;3.65;;;;;;;19.74;100.00;96651.44;1222877;75;2925079;-70
2023/07/25 09:11:39;;;;;;;4.20;2.95;;;;;;;19.78;100.00;96662.91;1222617;75;2915677;-70
2023/07/25 09:14:12;;;;;;;4.50;3.40;;;;;;;19.90;100.00;96662.50;1217347;75;3067189;-67
2023/07/25 09:16:44;;;;;;;3.40;2.65;;;;;;;20.07;100.00;96653.50;1222233;75;2936528;-69
2023/07/25 09:19:17;;;;;;;3.80;2.70;;;;;;;20.11;100.00;96637.91;1222648;75;2929699;-69
2023/07/25 09:21:57;;;;;;;2.35;1.95;;;;;;;20.00;100.00;96641.88;1220717;75;2926036;-71
2023/07/25 09:24:39;;;;;;;3.65;2.55;;;;;;;20.26;100.00;96639.84;1220850;75;2928883;-69
2023/07/25 09:27:19;;;;;;;3.65;1.90;;;;;;;20.48;100.00;96624.31;1222651;75;2918425;-71
2023/07/25 09:29:54;;;;;;;2.20;1.70;;;;;;;20.58;100.00;96616.81;1186917;75;5754176;-71
2023/07/25 09:32:32;;;;;;;4.40;2.80;;;;;;;20.20;100.00;96625.44;1223426;75;2929275;-70
2023/07/25 09:35:08;;;;;;;5.80;4.10;;;;;;;19.82;100.00;96631.22;1220299;75;2924868;-70
2023/07/25 09:37:43;;;;;;;3.95;3.35;;;;;;;19.83;100.00;96624.38;1222942;75;2920088;-71
2023/07/25 09:40:16;;;;;;;3.15;2.70;;;;;;;19.98;100.00;96627.06;1222461;75;2940840;-72
2023/07/25 09:42:51;;;;;;;3.65;2.90;;;;;;;19.78;100.00;96665.69;1223088;75;2926968;-72
2023/07/25 09:45:23;;;;;;;4.30;3.40;;;;;;;19.48;100.00;96685.22;1223484;75;2922023;-70
2023/07/25 09:47:56;;;;;;;4.30;3.15;;;;;;;19.42;100.00;96668.78;1220511;75;2919361;-69
2023/07/25 09:50:29;;;;;;;4.00;3.25;;;;;;;19.55;100.00;96709.44;1223458;75;2920683;-70
2023/07/25 09:53:05;;;;;;;4.75;3.00;;;;;;;19.71;100.00;96735.16;1223326;75;2951046;-70
2023/07/25 09:55:37;;;;;;;4.65;2.60;;;;;;;19.50;100.00;96716.66;1222835;75;2929033;-71
2023/07/25 09:58:10;;;;;;;7.00;5.75;;;;;;;19.34;100.00;96709.69;1221609;75;2933711;-68
2023/07/25 10:00:43;;;;;;;3.85;3.45;;;;;;;19.34;100.00;96710.44;1222688;75;2923952;-69
2023/07/25 10:03:16;;;;;;;5.15;3.40;;;;;;;19.36;100.00;96707.84;1221968;75;2925371;-68
2023/07/25 10:05:49;;;;;;;5.30;3.35;;;;;;;19.40;100.00;96674.16;1223591;75;2926463;-70
2023/07/25 10:08:28;;;;;;;3.30;2.90;;;;;;;19.49;100.00;96667.28;1222899;75;2922693;-70
2023/07/25 10:11:01;;;;;;;4.60;3.00;;;;;;;19.29;100.00;96666.22;1223479;75;2928261;-69
2023/07/25 10:13:35;;;;;;;3.75;3.20;;;;;;;19.21;100.00;96679.38;1222500;75;2921833;-68
2023/07/25 10:16:10;;;;;;;4.05;2.85;;;;;;;19.32;100.00;96676.94;1222951;75;2926971;-72
2023/07/25 10:18:45;;;;;;;5.85;3.80;;;;;;;18.96;100.00;96596.78;1222498;75;2925435;-69
2023/07/25 10:21:22;;;;;;;4.70;3.60;;;;;;;18.98;100.00;96541.50;1223323;75;2929408;-69
2023/07/25 10:24:02;;;;;;;3.80;3.05;;;;;;;19.32;100.00;96579.81;1223700;75;2925446;-68
2023/07/25 10:26:35;;;;;;;3.00;2.30;;;;;;;19.48;100.00;96635.25;1222246;75;2923563;-70
2023/07/25 10:29:41;;;;;;;4.55;3.20;;;;;;;18.92;100.00;96662.97;1223357;75;2923420;-69
2023/07/25 10:32:17;;;;;;;4.15;2.90;;;;;;;19.05;100.00;96650.91;1222254;75;2922035;-70
2023/07/25 10:34:53;;;;;;;4.55;3.50;;;;;;;19.32;100.00;96660.28;1223250;75;2935218;-71
2023/07/25 10:37:30;;;;;;;3.35;2.75;;;;;;;19.54;100.00;96667.06;1222551;75;2924899;-70
2023/07/25 10:40:20;;;;;;;5.65;4.80;;;;;;;19.16;100.00;96648.50;1220883;75;2929974;-71
2023/07/25 10:43:00;;;;;;;4.30;2.60;;;;;;;19.82;100.00;96617.34;1223161;75;2926900;-71
2023/07/25 10:45:54;;;;;;;3.60;2.55;;;;;;;19.88;100.00;96635.28;1223407;75;2921533;-69
2023/07/25 10:48:37;;;;;;;3.30;2.25;;;;;;;20.31;100.00;96624.25;1223478;75;2928985;-70
2023/07/25 10:51:10;;;;;;;2.10;1.90;;;;;;;20.97;100.00;96606.09;1223716;75;2931172;-71
2023/07/25 10:53:44;;;;;;;2.65;2.00;;;;;;;21.00;100.00;96602.16;1194028;75;5245795;-68
2023/07/25 10:56:19;;;;;;;2.35;1.80;;;;;;;21.73;100.00;96589.78;1223626;75;2928846;-68
2023/07/25 10:59:11;;;;;;;2.45;1.70;;;;;;;21.62;100.00;96579.91;1223389;75;2922988;-71
2023/07/25 11:01:47;;;;;;;3.25;2.45;;;;;;;22.07;100.00;96571.47;1223024;75;2925444;-71
2023/07/25 11:04:32;;;;;;;3.60;2.55;;;;;;;22.41;100.00;96573.34;1223617;75;2927954;-69
2023/07/25 11:07:13;;;;;;;4.10;2.80;;;;;;;22.44;100.00;96565.84;1221521;75;2940103;-71
2023/07/25 11:09:48;;;;;;;5.45;2.85;;;;;;;22.33;100.00;96556.00;1223062;75;2928119;-70
2023/07/25 11:12:27;;;;;;;2.95;2.20;;;;;;;22.88;100.00;96542.59;1223698;75;2917104;-68
2023/07/25 11:15:00;;;;;;;3.50;1.90;;;;;;;23.31;100.00;96549.19;1223458;75;2917888;-70
2023/07/25 11:17:33;;;;;;;2.50;1.95;;;;;;;23.90;100.00;96544.19;1222498;75;2883119;-70
2023/07/25 11:20:16;;;;;;;3.40;2.15;;;;;;;24.32;100.00;96547.69;1222249;75;2921533;-71
2023/07/25 11:22:52;;;;;;;2.70;2.20;;;;;;;23.45;100.00;96543.13;1222946;75;2928743;-70
2023/07/25 11:25:25;;;;;;;3.25;2.25;;;;;;;23.41;100.00;96531.69;1222651;75;2923733;-70
2023/07/25 11:28:01;;;;;;;2.65;2.05;;;;;;;23.58;100.00;96523.84;1223233;75;2931214;-69
2023/07/25 11:30:34;;;;;;;2.90;2.40;;;;;;;23.28;100.00;96530.06;1223821;75;2926069;-68
2023/07/25 11:33:06;;;;;;;2.95;2.00;;;;;;;23.07;100.00;96523.06;1222415;75;2929509;-69
2023/07/25 11:35:39;;;;;;;2.65;2.10;;;;;;;22.91;100.00;96513.50;1223675;75;2917715;-72
2023/07/25 11:38:11;;;;;;;1.95;1.70;;;;;;;22.88;100.00;96526.56;1222335;75;2933829;-71
2023/07/25 11:40:45;;;;;;;2.70;2.10;;;;;;;22.85;100.00;96538.16;1223212;75;2917755;-69